Time;durP1;ratioP1;P1;durP2;ratioP2;P2;SDS_P1;SDS_P2;PMS_P1;PMS_P2;Temp;Humidity;BMP_temperature;BMP_pressure;BME280_temperature;BME280_humidity;BME280_pressure;Samples;Min_cycle;Max_cycle;Signal;HPM_P1;HPM_P2
2020/12/12 00:02:00;;;;;;;34.40;18.67;;;4.80;99.90;;;;;;5101692;28;20452;-93
2020/12/12 00:04:26;;;;;;;37.50;18.90;;;4.80;99.90;;;;;;5126788;28;20910;-90
2020/12/12 00:06:53;;;;;;;34.57;18.93;;;4.80;99.90;;;;;;5124620;28;20541;-91
2020/12/12 00:09:19;;;;;;;36.63;17.67;;;4.80;99.90;;;;;;5144926;28;20458;-91
2020/12/12 00:11:47;;;;;;;40.93;19.20;;;4.80;99.90;;;;;;5147880;28;20454;-93
2020/12/12 00:14:44;;;;;;;36.93;19.27;;;4.70;99.90;;;;;;5149140;28;20469;-91
2020/12/12 00:17:12;;;;;;;33.47;17.37;;;4.70;99.90;;;;;;5144271;28;20447;-91
2020/12/12 00:19:41;;;;;;;39.73;18.50;;;4.70;99.90;;;;;;5130003;28;20458;-91
2020/12/12 00:22:07;;;;;;;39.97;18.87;;;4.70;99.90;;;;;;5128990;28;20929;-91
2020/12/12 00:24:35;;;;;;;40.23;18.77;;;4.70;99.90;;;;;;5137557;28;20455;-91
2020/12/12 00:27:01;;;;;;;36.73;17.73;;;4.70;99.90;;;;;;5109565;28;20532;-91
2020/12/12 00:29:28;;;;;;;39.20;18.27;;;4.70;99.90;;;;;;5126395;28;20454;-90
2020/12/12 00:31:55;;;;;;;40.27;18.83;;;4.70;99.90;;;;;;5106318;28;20444;-91
2020/12/12 00:35:04;;;;;;;38.17;19.90;;;4.70;99.90;;;;;;5129875;28;20430;-91
2020/12/12 00:37:31;;;;;;;35.57;18.23;;;4.70;99.90;;;;;;5125603;28;20478;-92
2020/12/12 00:39:58;;;;;;;38.33;18.83;;;4.80;99.90;;;;;;5122568;27;20466;-91
2020/12/12 00:42:25;;;;;;;39.27;18.87;;;4.70;99.90;;;;;;5133046;27;20459;-92
2020/12/12 00:44:51;;;;;;;36.90;18.40;;;4.50;99.90;;;;;;5143451;27;20476;-92
2020/12/12 00:47:19;;;;;;;40.50;19.40;;;4.50;99.90;;;;;;5135009;27;20497;-92
2020/12/12 00:49:45;;;;;;;40.60;19.63;;;4.50;99.90;;;;;;5127993;27;20450;-92
2020/12/12 00:52:11;;;;;;;37.60;18.53;;;4.60;99.90;;;;;;5143579;27;20455;-93
2020/12/12 00:54:40;;;;;;;36.63;18.57;;;4.60;99.90;;;;;;5142395;27;20523;-92
2020/12/12 00:57:08;;;;;;;37.17;19.17;;;4.60;99.90;;;;;;5133172;27;20464;-92
2020/12/12 00:59:36;;;;;;;37.60;19.80;;;4.60;99.90;;;;;;5123589;27;20475;-92
2020/12/12 01:02:02;;;;;;;42.07;20.33;;;4.60;99.90;;;;;;5138923;27;20466;-92
2020/12/12 01:04:29;;;;;;;41.47;19.20;;;4.60;99.90;;;;;;5128539;28;20454;-91
2020/12/12 01:06:58;;;;;;;41.00;19.63;;;4.70;99.90;;;;;;5124492;28;20520;-92
2020/12/12 01:09:24;;;;;;;36.50;18.37;;;4.70;99.90;;;;;;5125136;27;20542;-92
2020/12/12 01:11:52;;;;;;;39.43;19.13;;;4.60;99.90;;;;;;5123931;28;20482;-92
2020/12/12 01:14:19;;;;;;;36.33;18.57;;;4.50;99.90;;;;;;5124004;27;20466;-92
2020/12/12 01:16:45;;;;;;;38.90;19.37;;;4.60;99.90;;;;;;5141520;27;20554;-92
2020/12/12 01:19:14;;;;;;;38.73;19.80;;;4.60;99.90;;;;;;5127396;27;20456;-92
2020/12/12 01:21:41;;;;;;;40.03;18.87;;;4.50;99.90;;;;;;5133457;27;20455;-92
2020/12/12 01:24:08;;;;;;;40.20;18.73;;;4.60;99.90;;;;;;5150649;27;21077;-92
2020/12/12 01:26:34;;;;;;;36.47;19.33;;;4.60;99.90;;;;;;5143750;27;20498;-92
2020/12/12 01:29:02;;;;;;;35.53;18.23;;;4.50;99.90;;;;;;5112176;28;20483;-93
2020/12/12 01:31:29;;;;;;;37.43;18.97;;;4.50;99.90;;;;;;5107540;28;20529;-92
2020/12/12 01:33:55;;;;;;;39.03;19.53;;;4.50;99.90;;;;;;5110918;28;20461;-92
2020/12/12 01:36:22;;;;;;;39.47;19.27;;;4.50;99.90;;;;;;5118615;28;20456;-92
2020/12/12 01:38:48;;;;;;;36.73;18.97;;;4.50;99.90;;;;;;5117627;28;20464;-92
2020/12/12 01:41:18;;;;;;;40.23;19.53;;;4.50;99.90;;;;;;5104264;28;20996;-92
2020/12/12 01:43:49;;;;;;;35.73;18.20;;;4.50;99.90;;;;;;5123646;28;20462;-92
2020/12/12 01:46:22;;;;;;;38.20;19.23;;;4.50;99.90;;;;;;5110639;28;20507;-92
2020/12/12 01:48:48;;;;;;;34.87;19.33;;;4.40;99.90;;;;;;5104819;28;20513;-93
2020/12/12 01:51:15;;;;;;;38.87;18.60;;;4.50;99.90;;;;;;5127548;28;20527;-91
2020/12/12 01:53:41;;;;;;;33.77;18.30;;;4.50;99.90;;;;;;5130107;28;20463;-92
2020/12/12 01:56:11;;;;;;;39.47;19.33;;;4.60;99.90;;;;;;5111684;28;20448;-91
2020/12/12 01:58:39;;;;;;;34.07;18.07;;;4.50;99.90;;;;;;5128235;28;20505;-91
2020/12/12 02:01:08;;;;;;;40.03;19.10;;;4.50;99.90;;;;;;5115534;28;20447;-92
2020/12/12 02:03:41;;;;;;;34.83;16.93;;;4.50;99.90;;;;;;5124151;28;20443;-91
2020/12/12 02:06:11;;;;;;;36.00;17.93;;;4.50;99.90;;;;;;5113632;28;20523;-91
2020/12/12 02:08:38;;;;;;;35.10;17.70;;;4.50;99.90;;;;;;5115280;28;20433;-91
2020/12/12 02:11:07;;;;;;;35.40;17.67;;;4.60;99.90;;;;;;5116275;28;20449;-91
2020/12/12 02:13:34;;;;;;;32.67;16.90;;;4.50;99.90;;;;;;5113555;28;20468;-92
2020/12/12 02:16:01;;;;;;;34.83;18.10;;;4.60;99.90;;;;;;5136130;28;20451;-91
2020/12/12 02:18:27;;;;;;;37.60;18.83;;;4.60;99.90;;;;;;5136027;28;20459;-91
2020/12/12 02:20:57;;;;;;;32.80;17.53;;;4.60;99.90;;;;;;5134766;28;20458;-90
2020/12/12 02:23:24;;;;;;;35.63;18.27;;;4.50;99.90;;;;;;5115713;28;20440;-91
2020/12/12 02:25:51;;;;;;;36.17;18.30;;;4.50;99.90;;;;;;5116248;28;20475;-91
2020/12/12 02:28:24;;;;;;;33.80;17.37;;;4.60;99.90;;;;;;5114748;28;20482;-91
2020/12/12 02:30:50;;;;;;;35.27;18.33;;;4.60;99.90;;;;;;5125205;28;20483;-91
2020/12/12 02:33:17;;;;;;;32.17;18.70;;;4.60;99.90;;;;;;5134569;28;20449;-93
2020/12/12 02:35:46;;;;;;;33.50;17.77;;;4.60;99.90;;;;;;5136556;28;20532;-91
2020/12/12 02:38:13;;;;;;;34.60;18.53;;;4.60;99.90;;;;;;5119868;28;20449;-92
2020/12/12 02:40:41;;;;;;;36.63;20.03;;;4.60;99.90;;;;;;5120997;28;20498;-92
2020/12/12 02:43:11;;;;;;;36.07;18.97;;;4.60;99.90;;;;;;5134416;28;20922;-92
2020/12/12 02:45:39;;;;;;;37.50;17.80;;;4.50;99.90;;;;;;5128756;28;20461;-91
2020/12/12 02:48:05;;;;;;;33.37;17.70;;;4.60;99.90;;;;;;5116268;28;20528;-92
2020/12/12 02:50:33;;;;;;;37.07;18.83;;;4.60;99.90;;;;;;5100736;28;20453;-91
2020/12/12 02:53:02;;;;;;;36.33;19.23;;;4.50;99.90;;;;;;5107699;28;20463;-92
2020/12/12 02:55:28;;;;;;;35.40;18.13;;;4.40;99.90;;;;;;5114238;28;20460;-92
2020/12/12 02:57:56;;;;;;;32.93;17.17;;;4.50;99.90;;;;;;5106302;28;20451;-92
2020/12/12 03:00:24;;;;;;;35.17;18.40;;;4.50;99.90;;;;;;5118430;28;20463;-92
2020/12/12 03:02:50;;;;;;;34.13;18.70;;;4.50;99.90;;;;;;5122995;28;20547;-91
2020/12/12 03:05:17;;;;;;;34.27;17.60;;;4.50;99.90;;;;;;5117605;28;20471;-92
2020/12/12 03:07:44;;;;;;;36.37;18.53;;;4.50;99.90;;;;;;5124098;28;20425;-92
2020/12/12 03:10:10;;;;;;;34.63;18.13;;;4.50;99.90;;;;;;5134075;28;20463;-92
2020/12/12 03:12:38;;;;;;;33.10;19.03;;;4.60;99.90;;;;;;5123420;28;20971;-92
2020/12/12 03:15:06;;;;;;;35.77;18.50;;;4.50;99.90;;;;;;5131596;28;20469;-92
2020/12/12 03:17:33;;;;;;;33.50;18.13;;;4.50;99.90;;;;;;5119559;28;20457;-93
2020/12/12 03:20:00;;;;;;;36.87;18.93;;;4.40;99.90;;;;;;5101472;28;20444;-92
2020/12/12 03:22:27;;;;;;;39.73;19.03;;;4.40;99.90;;;;;;5122109;28;20527;-91
2020/12/12 03:24:53;;;;;;;36.43;19.10;;;4.40;99.90;;;;;;5105108;28;20480;-92
2020/12/12 03:27:19;;;;;;;34.53;18.70;;;4.40;99.90;;;;;;5110698;28;21097;-92
2020/12/12 03:29:46;;;;;;;39.30;19.77;;;4.40;99.90;;;;;;5116640;28;20455;-92
2020/12/12 03:32:14;;;;;;;35.57;18.47;;;4.40;99.90;;;;;;5117757;28;20566;-92
2020/12/12 03:34:44;;;;;;;36.60;18.63;;;4.50;99.90;;;;;;5117023;28;20451;-91
2020/12/12 03:37:11;;;;;;;36.40;18.63;;;4.40;99.90;;;;;;5119548;28;20462;-92
2020/12/12 03:39:37;;;;;;;37.50;19.10;;;4.40;99.90;;;;;;5149511;27;20466;-91
2020/12/12 03:42:04;;;;;;;36.90;18.10;;;4.30;99.90;;;;;;5136283;27;20520;-91
2020/12/12 03:44:30;;;;;;;35.00;18.77;;;4.30;99.90;;;;;;5133427;27;20509;-91
2020/12/12 03:46:57;;;;;;;38.30;18.90;;;4.20;99.90;;;;;;5134216;28;20487;-91
2020/12/12 03:49:24;;;;;;;38.23;20.33;;;4.30;99.90;;;;;;5137041;28;20462;-91
2020/12/12 03:51:51;;;;;;;35.23;18.07;;;4.30;99.90;;;;;;5141157;28;22135;-91
2020/12/12 03:54:17;;;;;;;38.37;19.40;;;4.30;99.90;;;;;;5137895;28;20447;-91
2020/12/12 03:56:43;;;;;;;38.97;19.90;;;4.30;99.90;;;;;;5154766;28;20431;-92
2020/12/12 03:59:10;;;;;;;32.27;17.60;;;4.30;99.90;;;;;;5151044;28;20458;-91
2020/12/12 04:01:36;;;;;;;36.20;18.53;;;4.30;99.90;;;;;;5154469;28;20453;-90
2020/12/12 04:04:04;;;;;;;34.80;19.20;;;4.30;99.90;;;;;;5147071;28;20508;-92
2020/12/12 04:06:34;;;;;;;32.40;17.57;;;4.30;99.90;;;;;;5119841;28;20483;-92
2020/12/12 04:09:01;;;;;;;36.13;19.43;;;4.30;99.90;;;;;;5122233;27;20470;-92
2020/12/12 04:11:27;;;;;;;33.63;18.57;;;4.40;99.90;;;;;;5152273;27;20451;-92
2020/12/12 04:13:54;;;;;;;38.80;19.63;;;4.40;99.90;;;;;;5137279;28;20532;-92
2020/12/12 04:16:20;;;;;;;38.80;18.47;;;4.40;99.90;;;;;;5141343;27;20427;-91
2020/12/12 04:18:47;;;;;;;36.43;18.03;;;4.40;99.90;;;;;;5160031;27;20449;-92
2020/12/12 04:21:13;;;;;;;35.53;18.60;;;4.40;99.90;;;;;;5156589;27;20476;-91
2020/12/12 04:23:43;;;;;;;38.70;19.60;;;4.30;99.90;;;;;;5160310;27;20526;-92
2020/12/12 04:26:11;;;;;;;36.97;18.57;;;4.30;99.90;;;;;;5158962;27;20680;-92
2020/12/12 04:28:37;;;;;;;34.37;18.33;;;4.30;99.90;;;;;;5144147;27;20559;-91
2020/12/12 04:31:04;;;;;;;35.00;19.13;;;4.30;99.90;;;;;;5148881;27;20446;-92
2020/12/12 04:33:30;;;;;;;38.37;19.47;;;4.30;99.90;;;;;;5156447;27;20455;-92
2020/12/12 04:35:56;;;;;;;36.23;18.80;;;4.20;99.90;;;;;;5143311;27;20451;-92
2020/12/12 04:38:22;;;;;;;38.40;19.33;;;4.20;99.90;;;;;;5142967;27;20478;-93
2020/12/12 04:40:52;;;;;;;39.40;19.97;;;4.20;99.90;;;;;;5142322;27;20459;-92
2020/12/12 04:43:19;;;;;;;36.97;18.57;;;4.20;99.90;;;;;;5157576;27;20455;-92
2020/12/12 04:45:48;;;;;;;38.77;19.60;;;4.20;99.90;;;;;;5158507;27;20446;-92
2020/12/12 04:48:14;;;;;;;39.47;19.70;;;4.20;99.90;;;;;;5140094;27;20466;-91
2020/12/12 04:50:42;;;;;;;38.47;19.00;;;4.20;99.90;;;;;;5132708;28;20523;-92
2020/12/12 04:53:14;;;;;;;37.83;19.90;;;4.30;99.90;;;;;;5150139;27;20522;-92
2020/12/12 04:55:43;;;;;;;41.23;19.83;;;4.30;99.90;;;;;;5143019;27;20452;-92
2020/12/12 04:58:14;;;;;;;40.23;18.93;;;4.40;99.90;;;;;;5136264;28;20481;-92
2020/12/12 05:00:43;;;;;;;38.50;19.77;;;4.40;99.90;;;;;;5137479;28;20447;-93
2020/12/12 05:03:12;;;;;;;35.53;19.97;;;4.50;99.90;;;;;;5136409;27;20455;-92
2020/12/12 05:05:38;;;;;;;38.03;19.33;;;4.50;99.90;;;;;;5135820;28;20444;-92
2020/12/12 05:08:05;;;;;;;40.83;20.83;;;4.30;99.90;;;;;;5167114;22;20483;-92
2020/12/12 05:10:36;;;;;;;35.70;18.83;;;4.20;99.90;;;;;;5138347;28;20444;-92
2020/12/12 05:13:13;;;;;;;36.13;19.40;;;4.20;99.90;;;;;;5152422;22;22048;-92
2020/12/12 05:15:40;;;;;;;38.90;19.97;;;4.30;99.90;;;;;;5139081;28;20455;-93
2020/12/12 05:18:06;;;;;;;39.00;19.40;;;4.30;99.90;;;;;;5138881;27;21060;-92
2020/12/12 05:20:36;;;;;;;38.10;19.63;;;4.40;99.90;;;;;;5158571;27;20439;-93
2020/12/12 05:23:09;;;;;;;40.03;18.40;;;4.40;99.90;;;;;;5141590;27;20456;-92
2020/12/12 05:25:36;;;;;;;39.90;20.47;;;4.40;99.90;;;;;;5157398;27;20469;-92
2020/12/12 05:28:04;;;;;;;37.13;18.93;;;4.40;99.90;;;;;;5155265;27;20467;-92
2020/12/12 05:30:30;;;;;;;38.43;20.33;;;4.30;99.90;;;;;;5142716;27;20826;-92
2020/12/12 05:32:58;;;;;;;40.40;19.27;;;4.30;99.90;;;;;;5156299;27;20436;-94
2020/12/12 05:35:24;;;;;;;39.83;20.20;;;4.20;99.90;;;;;;5157231;27;20438;-92
2020/12/12 05:37:51;;;;;;;44.30;19.90;;;4.30;99.90;;;;;;5159532;27;20433;-92
2020/12/12 05:40:18;;;;;;;37.93;20.00;;;4.30;99.90;;;;;;5158675;27;20454;-93
2020/12/12 05:42:48;;;;;;;33.97;17.93;;;4.40;99.90;;;;;;5158540;27;20471;-93
2020/12/12 05:45:15;;;;;;;39.67;19.63;;;4.40;99.90;;;;;;5147393;27;20467;-92
2020/12/12 05:47:41;;;;;;;40.63;19.43;;;4.50;99.90;;;;;;5137998;27;20486;-92
2020/12/12 05:50:10;;;;;;;43.43;20.87;;;4.40;99.90;;;;;;5146074;27;20431;-92
2020/12/12 05:52:40;;;;;;;36.07;19.50;;;4.30;99.90;;;;;;5141049;27;20538;-93
2020/12/12 05:55:06;;;;;;;42.50;20.70;;;4.30;99.90;;;;;;5136359;28;20440;-92
2020/12/12 05:57:33;;;;;;;38.93;19.17;;;4.30;99.90;;;;;;5150191;27;20430;-93
2020/12/12 06:00:03;;;;;;;38.93;19.03;;;4.20;99.90;;;;;;5158263;27;20924;-93
2020/12/12 06:02:33;;;;;;;37.00;19.47;;;4.30;99.90;;;;;;5154094;27;20448;-92
2020/12/12 06:05:05;;;;;;;44.37;20.30;;;4.30;99.90;;;;;;5138948;28;20435;-93
2020/12/12 06:07:34;;;;;;;39.67;19.43;;;4.40;99.90;;;;;;5139100;27;20456;-92
2020/12/12 06:10:02;;;;;;;41.60;20.00;;;4.40;99.90;;;;;;5146092;27;20460;-93
2020/12/12 06:12:28;;;;;;;41.43;19.30;;;4.30;99.90;;;;;;5145773;27;20448;-92
2020/12/12 06:14:59;;;;;;;42.53;21.00;;;4.30;99.90;;;;;;5140047;27;20498;-93
2020/12/12 06:17:44;;;;;;;40.83;19.77;;;4.30;99.90;;;;;;5147897;27;20451;-92
2020/12/12 06:20:14;;;;;;;41.07;19.23;;;4.40;99.90;;;;;;5147005;27;20452;-92
2020/12/12 06:22:43;;;;;;;35.37;18.27;;;4.40;99.90;;;;;;5149840;27;20459;-91
2020/12/12 06:25:14;;;;;;;38.83;19.73;;;4.40;99.90;;;;;;5143723;27;20466;-92
2020/12/12 06:27:47;;;;;;;37.40;18.90;;;4.40;99.90;;;;;;5146471;27;20510;-92
2020/12/12 06:30:14;;;;;;;40.10;19.03;;;4.50;99.90;;;;;;5157136;27;20452;-92
2020/12/12 06:32:41;;;;;;;39.70;19.93;;;4.50;99.90;;;;;;5158571;27;20459;-94
2020/12/12 06:35:08;;;;;;;39.80;18.87;;;4.60;99.90;;;;;;5159562;27;20447;-92
2020/12/12 06:37:36;;;;;;;38.77;20.43;;;4.50;99.90;;;;;;5138807;28;20455;-92
2020/12/12 06:40:06;;;;;;;41.73;20.20;;;4.40;99.90;;;;;;5138911;27;20452;-93
2020/12/12 06:42:36;;;;;;;38.27;19.13;;;4.40;99.90;;;;;;5138762;28;20424;-92
2020/12/12 06:45:22;;;;;;;37.60;19.00;;;4.50;99.90;;;;;;5146589;27;20435;-92
2020/12/12 06:47:51;;;;;;;37.90;19.20;;;4.50;99.90;;;;;;5158230;27;20478;-92
2020/12/12 06:50:22;;;;;;;42.03;20.97;;;4.50;99.90;;;;;;5154951;27;20446;-91
2020/12/12 06:52:49;;;;;;;39.47;20.23;;;4.50;99.90;;;;;;5141507;27;20493;-91
2020/12/12 06:55:19;;;;;;;41.93;20.30;;;4.60;99.90;;;;;;5137975;27;20440;-92
2020/12/12 06:57:47;;;;;;;38.47;19.73;;;4.60;99.90;;;;;;5137099;28;20539;-92
2020/12/12 07:03:09;;;;;;;38.07;19.63;;;4.50;99.90;;;;;;5137453;27;20461;-92
2020/12/12 07:05:38;;;;;;;38.43;19.70;;;4.50;99.90;;;;;;5137658;27;20448;-93
2020/12/12 07:08:06;;;;;;;39.70;19.80;;;4.50;99.90;;;;;;5136923;27;20495;-93
2020/12/12 07:10:34;;;;;;;39.17;19.90;;;4.50;99.90;;;;;;5137517;27;20450;-93
2020/12/12 07:13:02;;;;;;;41.20;19.97;;;4.40;99.90;;;;;;5120191;28;20475;-93
2020/12/12 07:15:29;;;;;;;39.37;20.43;;;4.40;99.90;;;;;;5147161;27;20523;-92
2020/12/12 07:17:55;;;;;;;41.97;20.63;;;4.50;99.90;;;;;;5158105;27;20462;-92
2020/12/12 07:20:22;;;;;;;40.57;20.33;;;4.60;99.90;;;;;;5157809;27;20441;-93
2020/12/12 07:22:48;;;;;;;38.50;20.37;;;4.60;99.90;;;;;;5158015;27;20444;-93
2020/12/12 07:25:14;;;;;;;41.40;20.83;;;4.70;99.90;;;;;;5147740;27;20447;-93
2020/12/12 07:27:42;;;;;;;42.40;19.37;;;4.70;99.90;;;;;;5136028;28;20527;-93
2020/12/12 07:30:08;;;;;;;39.50;20.20;;;4.60;99.90;;;;;;5137175;27;20448;-92
2020/12/12 07:32:37;;;;;;;42.70;20.50;;;4.50;99.90;;;;;;5137897;27;20438;-93
2020/12/12 07:35:03;;;;;;;42.17;20.10;;;4.30;99.90;;;;;;5153165;27;20526;-93
2020/12/12 07:37:32;;;;;;;43.43;20.50;;;4.40;99.90;;;;;;5158674;27;20470;-93
2020/12/12 07:39:58;;;;;;;40.50;20.67;;;4.50;99.90;;;;;;5145399;27;20447;-93
2020/12/12 07:42:32;;;;;;;41.00;20.60;;;4.60;99.90;;;;;;5139703;27;20464;-93
2020/12/12 07:45:08;;;;;;;41.07;21.00;;;4.70;99.90;;;;;;5147375;27;20455;-93
2020/12/12 07:47:34;;;;;;;44.23;19.77;;;4.60;99.90;;;;;;5136824;28;20481;-92
2020/12/12 07:50:02;;;;;;;42.23;20.37;;;4.70;99.90;;;;;;5149958;27;20435;-93
2020/12/12 07:52:28;;;;;;;43.40;21.50;;;4.70;99.90;;;;;;5155298;27;20451;-91
2020/12/12 07:55:00;;;;;;;43.00;20.60;;;4.80;99.90;;;;;;5136367;27;20477;-92
2020/12/12 07:57:27;;;;;;;39.07;20.80;;;4.80;99.90;;;;;;5136631;27;20479;-93
2020/12/12 08:00:07;;;;;;;37.93;20.93;;;4.80;99.90;;;;;;5135304;27;20684;-93
2020/12/12 08:02:33;;;;;;;36.80;20.23;;;4.80;99.90;;;;;;5138775;27;20456;-92
2020/12/12 08:05:00;;;;;;;38.20;19.83;;;4.80;99.90;;;;;;5157584;27;20435;-92
2020/12/12 08:07:30;;;;;;;39.07;18.90;;;4.80;99.90;;;;;;5156241;27;20475;-92
2020/12/12 08:09:56;;;;;;;39.87;19.80;;;4.90;99.90;;;;;;5156618;28;20450;-92
2020/12/12 08:12:31;;;;;;;36.33;18.77;;;5.00;99.90;;;;;;5157479;27;20439;-92
2020/12/12 08:15:12;;;;;;;40.67;20.20;;;5.10;99.90;;;;;;5116198;28;20492;-92
2020/12/12 08:17:39;;;;;;;40.87;20.33;;;5.10;99.90;;;;;;5117984;28;20460;-94
2020/12/12 08:20:05;;;;;;;39.20;19.90;;;5.00;99.90;;;;;;5139599;28;20523;-92
2020/12/12 08:22:36;;;;;;;38.47;19.17;;;5.00;99.90;;;;;;5137131;28;20467;-93
2020/12/12 08:25:06;;;;;;;37.27;19.30;;;5.00;99.90;;;;;;5156615;27;20431;-93
2020/12/12 08:27:33;;;;;;;41.83;20.60;;;5.20;99.90;;;;;;5157932;27;20475;-92
2020/12/12 08:30:00;;;;;;;38.93;20.03;;;5.10;99.90;;;;;;5157528;27;20470;-93
2020/12/12 08:32:29;;;;;;;39.37;18.73;;;5.20;99.90;;;;;;5157716;27;20477;-92
2020/12/12 08:35:24;;;;;;;39.30;20.57;;;5.10;99.90;;;;;;5137966;27;20455;-92
2020/12/12 08:38:09;;;;;;;38.97;20.50;;;5.20;99.90;;;;;;5119075;28;20444;-92
2020/12/12 08:40:46;;;;;;;39.30;20.83;;;5.10;99.90;;;;;;5151984;27;20444;-90
2020/12/12 08:43:13;;;;;;;42.30;20.60;;;5.20;99.90;;;;;;5116213;28;20445;-92
2020/12/12 08:45:41;;;;;;;40.03;20.80;;;5.20;99.90;;;;;;5157229;27;20431;-92
2020/12/12 08:48:11;;;;;;;39.47;20.20;;;5.10;99.90;;;;;;5156945;27;20479;-92
2020/12/12 08:50:53;;;;;;;42.67;20.17;;;5.10;99.90;;;;;;5157184;27;20482;-94
2020/12/12 08:53:22;;;;;;;42.90;21.57;;;5.00;99.90;;;;;;5175432;22;20475;-94
2020/12/12 08:56:04;;;;;;;37.17;19.93;;;5.00;99.90;;;;;;5152775;27;20648;-93
2020/12/12 08:58:48;;;;;;;42.47;21.00;;;5.00;99.90;;;;;;5152230;27;20430;-92
2020/12/12 09:01:33;;;;;;;47.83;21.57;;;5.10;99.90;;;;;;5116091;28;20479;-93
2020/12/12 09:04:05;;;;;;;40.40;20.60;;;5.10;99.90;;;;;;5134409;28;20509;-93
2020/12/12 09:06:36;;;;;;;44.03;21.77;;;5.10;99.90;;;;;;5136257;28;20481;-93
2020/12/12 09:09:13;;;;;;;41.77;21.17;;;5.10;99.90;;;;;;5131268;28;20447;-93
2020/12/12 09:11:41;;;;;;;44.43;21.23;;;5.10;99.90;;;;;;5133405;28;20451;-93
2020/12/12 09:14:09;;;;;;;35.37;19.63;;;5.10;99.90;;;;;;5135497;28;20526;-94
2020/12/12 09:16:35;;;;;;;41.93;20.93;;;5.10;99.90;;;;;;5133233;28;20446;-93
2020/12/12 09:19:05;;;;;;;37.70;19.67;;;5.10;99.90;;;;;;5138892;28;20527;-94
2020/12/12 09:21:36;;;;;;;43.73;20.20;;;5.00;99.90;;;;;;5139262;28;20490;-93
2020/12/12 09:24:03;;;;;;;39.47;20.83;;;5.00;99.90;;;;;;5139838;28;20456;-94
2020/12/12 09:26:31;;;;;;;42.70;21.73;;;5.10;99.90;;;;;;5138635;28;20479;-93
2020/12/12 09:28:57;;;;;;;39.87;20.40;;;5.10;99.90;;;;;;5138807;28;20667;-93
2020/12/12 09:31:27;;;;;;;42.10;20.63;;;5.10;99.90;;;;;;5138954;28;20456;-93
2020/12/12 09:33:54;;;;;;;39.47;20.77;;;5.20;99.90;;;;;;5139375;28;20464;-93
2020/12/12 09:36:21;;;;;;;35.77;19.17;;;5.20;99.90;;;;;;5138626;28;20444;-94
2020/12/12 09:38:48;;;;;;;38.93;20.70;;;5.10;99.90;;;;;;5138743;28;20463;-94
2020/12/12 09:41:15;;;;;;;36.97;19.97;;;5.10;99.90;;;;;;5134168;28;20464;-94
2020/12/12 09:43:41;;;;;;;38.80;20.27;;;5.20;99.90;;;;;;5138830;28;20444;-94
2020/12/12 09:46:11;;;;;;;38.40;22.00;;;5.20;99.90;;;;;;5139201;28;20456;-94
2020/12/12 09:48:41;;;;;;;41.53;21.43;;;5.20;99.90;;;;;;5138581;28;20456;-95
2020/12/12 09:51:10;;;;;;;36.90;19.83;;;5.20;99.90;;;;;;5138024;28;20444;-94
2020/12/12 09:53:38;;;;;;;37.57;21.10;;;5.20;99.90;;;;;;5137961;28;20551;-95
2020/12/12 09:56:04;;;;;;;42.37;20.60;;;5.20;99.90;;;;;;5138454;28;20508;-94
2020/12/12 09:58:31;;;;;;;41.07;19.73;;;5.20;99.90;;;;;;5138206;28;20446;-93
2020/12/12 10:00:58;;;;;;;37.40;20.07;;;5.20;99.90;;;;;;5138155;28;20448;-95
2020/12/12 10:03:25;;;;;;;40.03;20.37;;;5.20;99.90;;;;;;5138042;28;20451;-94
2020/12/12 10:05:51;;;;;;;35.43;19.53;;;5.20;99.90;;;;;;5136660;28;20444;-94
2020/12/12 10:08:18;;;;;;;40.70;20.23;;;5.20;99.90;;;;;;5137569;27;20734;-94
2020/12/12 10:10:45;;;;;;;38.43;20.57;;;5.30;99.90;;;;;;5137862;27;20450;-94
2020/12/12 10:13:12;;;;;;;34.60;20.33;;;5.20;99.90;;;;;;5137670;28;20454;-94
2020/12/12 10:15:38;;;;;;;39.90;20.43;;;5.20;99.90;;;;;;5137907;27;20440;-94
2020/12/12 10:18:04;;;;;;;36.93;19.27;;;5.20;99.90;;;;;;5138415;27;20528;-95
2020/12/12 10:20:31;;;;;;;38.23;19.80;;;5.30;99.90;;;;;;5137648;28;20507;-95
2020/12/12 10:22:57;;;;;;;37.50;19.77;;;5.30;99.90;;;;;;5135588;27;20448;-93
2020/12/12 10:25:23;;;;;;;36.53;20.27;;;5.30;99.90;;;;;;5137230;27;20444;-94
2020/12/12 10:27:51;;;;;;;39.73;20.13;;;5.40;99.90;;;;;;5141187;27;20477;-92
2020/12/12 10:30:17;;;;;;;36.63;19.73;;;5.40;99.90;;;;;;5158608;27;20451;-94
2020/12/12 10:32:43;;;;;;;35.20;20.17;;;5.30;99.90;;;;;;5157822;27;20465;-94
2020/12/12 10:35:11;;;;;;;36.40;19.07;;;5.30;99.90;;;;;;5143064;27;20467;-92
2020/12/12 10:37:38;;;;;;;35.83;19.20;;;5.20;99.90;;;;;;5132997;28;20521;-95
2020/12/12 10:40:13;;;;;;;34.23;19.83;;;5.30;99.90;;;;;;5134644;28;20432;-93
2020/12/12 10:42:41;;;;;;;34.10;19.53;;;5.40;99.90;;;;;;5136865;28;20423;-93
2020/12/12 10:45:10;;;;;;;35.73;19.27;;;5.50;99.90;;;;;;5133008;27;20444;-94
2020/12/12 10:47:36;;;;;;;39.03;19.47;;;5.50;99.90;;;;;;5134260;28;20464;-92
2020/12/12 10:50:04;;;;;;;38.27;19.53;;;5.50;99.90;;;;;;5134898;28;20459;-93
2020/12/12 10:52:32;;;;;;;39.50;19.87;;;5.50;99.90;;;;;;5140954;27;20456;-93
2020/12/12 10:55:00;;;;;;;38.37;19.23;;;5.50;99.90;;;;;;5137939;27;20442;-94
2020/12/12 10:57:32;;;;;;;37.07;19.97;;;5.60;99.90;;;;;;5137724;27;20444;-95
2020/12/12 10:59:59;;;;;;;35.90;19.97;;;5.70;99.90;;;;;;5124138;28;20436;-93
2020/12/12 11:02:29;;;;;;;37.50;19.57;;;5.60;99.90;;;;;;5136713;27;20467;-92
2020/12/12 11:04:56;;;;;;;35.40;19.40;;;5.70;99.90;;;;;;5128841;28;20448;-92
2020/12/12 11:07:25;;;;;;;33.53;18.10;;;5.70;99.90;;;;;;5135705;27;20513;-92
2020/12/12 11:09:51;;;;;;;34.50;19.53;;;5.70;99.90;;;;;;5136104;28;20454;-93
2020/12/12 11:12:18;;;;;;;39.23;19.90;;;5.80;99.90;;;;;;5137704;28;20447;-92
2020/12/12 11:14:47;;;;;;;33.63;18.67;;;5.80;99.90;;;;;;5135707;28;20459;-91
2020/12/12 11:17:13;;;;;;;35.50;18.93;;;5.80;99.90;;;;;;5152471;27;20527;-93
2020/12/12 11:19:41;;;;;;;34.20;18.90;;;5.70;99.90;;;;;;5155772;27;20443;-92
2020/12/12 11:22:07;;;;;;;33.83;18.10;;;5.60;99.90;;;;;;5156227;27;20482;-93
2020/12/12 11:24:33;;;;;;;31.47;18.87;;;5.60;99.90;;;;;;5155829;27;20450;-93
2020/12/12 11:26:59;;;;;;;32.43;18.50;;;5.70;99.90;;;;;;5152819;27;20475;-94
2020/12/12 11:29:26;;;;;;;33.57;18.60;;;5.70;99.90;;;;;;5152146;27;20778;-92
2020/12/12 11:31:53;;;;;;;33.07;18.27;;;5.80;99.90;;;;;;5148236;27;20455;-93
2020/12/12 11:34:24;;;;;;;34.27;18.43;;;5.80;99.90;;;;;;5137621;27;20452;-93
2020/12/12 11:39:41;;;;;;;32.97;19.10;;;6.00;99.90;;;;;;5145048;27;20511;-93
2020/12/12 11:45:10;;;;;;;33.77;18.37;;;6.00;99.90;;;;;;5133090;27;20967;-90
2020/12/12 11:47:36;;;;;;;33.10;18.30;;;6.00;99.90;;;;;;5145303;27;20475;-90
2020/12/12 11:50:03;;;;;;;32.87;18.60;;;6.00;99.90;;;;;;5137515;27;20924;-90
2020/12/12 11:52:30;;;;;;;33.70;19.23;;;6.00;99.90;;;;;;5139293;27;20178;-89
2020/12/12 11:54:56;;;;;;;36.07;19.97;;;6.10;99.90;;;;;;5139873;28;20456;-93
2020/12/12 11:57:23;;;;;;;31.23;18.20;;;6.20;99.90;;;;;;5130627;28;20459;-92
2020/12/12 11:59:49;;;;;;;33.87;19.13;;;6.20;99.90;;;;;;5125410;28;20461;-92
2020/12/12 12:02:15;;;;;;;32.37;19.43;;;6.30;99.90;;;;;;5121929;28;20464;-92
2020/12/12 12:04:42;;;;;;;35.07;18.10;;;6.30;99.90;;;;;;5124733;28;20456;-92
2020/12/12 12:07:08;;;;;;;33.53;18.77;;;6.30;99.90;;;;;;5115032;28;20500;-92
2020/12/12 12:09:39;;;;;;;32.10;18.33;;;6.30;99.90;;;;;;5118371;28;20942;-93
2020/12/12 12:12:06;;;;;;;30.07;17.70;;;6.30;99.90;;;;;;5122450;28;20452;-94
2020/12/12 12:14:32;;;;;;;31.40;17.83;;;6.20;99.90;;;;;;5126504;28;20455;-94
2020/12/12 12:16:59;;;;;;;32.73;18.00;;;6.30;99.90;;;;;;5136156;28;20585;-94
2020/12/12 12:19:25;;;;;;;29.57;16.93;;;6.20;99.90;;;;;;5144534;28;20937;-94
2020/12/12 12:24:57;;;;;;;34.23;20.03;;;6.10;99.90;;;;;;5157068;28;20439;-92
2020/12/12 12:27:28;;;;;;;31.07;19.10;;;6.20;99.90;;;;;;5158674;27;20483;-92
2020/12/12 12:44:03;;;;;;;31.57;17.63;;;6.10;99.90;;;;;;5098269;28;20450;-94
2020/12/12 12:50:38;;;;;;;32.90;17.87;;;6.00;99.90;;;;;;5098164;28;20449;-94
2020/12/12 13:27:34;;;;;;;29.40;17.67;;;5.90;99.90;;;;;;5075583;28;20490;-95
2020/12/12 13:32:50;;;;;;;30.50;17.47;;;5.90;99.90;;;;;;5076016;28;20425;-95
2020/12/12 13:35:40;;;;;;;28.67;17.40;;;5.80;99.90;;;;;;5076879;28;20438;-94
2020/12/12 13:49:01;;;;;;;27.67;16.70;;;5.70;99.90;;;;;;5087419;28;20446;-94
2020/12/12 14:25:37;;;;;;;30.80;16.67;;;5.80;99.90;;;;;;5092540;28;20430;-96
2020/12/12 14:28:21;;;;;;;29.43;16.73;;;5.90;99.90;;;;;;5115620;28;20477;-92
2020/12/12 14:30:57;;;;;;;30.03;17.13;;;5.90;99.90;;;;;;5117437;28;20429;-93
2020/12/12 14:33:32;;;;;;;30.83;17.60;;;6.00;99.90;;;;;;5117443;28;20428;-92
2020/12/12 14:36:04;;;;;;;30.63;16.73;;;5.90;99.90;;;;;;5124580;28;20516;-92